<?xml version="1.0" encoding="UTF-8" standalone="no" ?>
<gpx xmlns="http://www.topografix.com/GPX/1/1" xmlns:xsi="http://www.w3.org/2001/XMLSchema-instance" xsi:schemaLocation="http://www.topografix.com/GPX/1/1 http://www.topografix.com/GPX/1/1/gpx.xsd" version="1.1" creator="VisuGPX - https://www.visugpx.com">
  <metadata>
    <name>Randonnée autour de Castelnaudary</name>
    <desc><![CDATA[Randonnée paramoteur autour de Castelnaudary et le lac de La Ganguise]]></desc>
  </metadata>
  <trk>
    <name><![CDATA[iParapente Track]]></name>
    <trkseg>
      <trkpt lat="43.19428" lon="1.97851">
        <ele>462.51457</ele>
        <time>2019-03-23T09:21:20Z</time>
      </trkpt>
      <trkpt lat="43.19396" lon="1.97752">
        <ele>477.697034</ele>
        <time>2019-03-23T09:21:31Z</time>
      </trkpt>
      <trkpt lat="43.19428" lon="1.97671">
        <ele>500.099181</ele>
        <time>2019-03-23T09:21:41Z</time>
      </trkpt>
      <trkpt lat="43.195" lon="1.97626">
        <ele>517.894268</ele>
        <time>2019-03-23T09:21:52Z</time>
      </trkpt>
      <trkpt lat="43.19594" lon="1.97624">
        <ele>529.567312</ele>
        <time>2019-03-23T09:22:03Z</time>
      </trkpt>
      <trkpt lat="43.19691" lon="1.97634">
        <ele>530.795192</ele>
        <time>2019-03-23T09:22:14Z</time>
      </trkpt>
      <trkpt lat="43.19781" lon="1.97634">
        <ele>545.327393</ele>
        <time>2019-03-23T09:22:25Z</time>
      </trkpt>
      <trkpt lat="43.1987" lon="1.97629">
        <ele>546.242874</ele>
        <time>2019-03-23T09:22:36Z</time>
      </trkpt>
      <trkpt lat="43.19952" lon="1.97631">
        <ele>555.294416</ele>
        <time>2019-03-23T09:22:47Z</time>
      </trkpt>
      <trkpt lat="43.2004" lon="1.97628">
        <ele>563.262475</ele>
        <time>2019-03-23T09:22:58Z</time>
      </trkpt>
      <trkpt lat="43.20126" lon="1.97635">
        <ele>571.359429</ele>
        <time>2019-03-23T09:23:09Z</time>
      </trkpt>
      <trkpt lat="43.20222" lon="1.97644">
        <ele>576.725804</ele>
        <time>2019-03-23T09:23:21Z</time>
      </trkpt>
      <trkpt lat="43.2032" lon="1.97672">
        <ele>582.436202</ele>
        <time>2019-03-23T09:23:32Z</time>
      </trkpt>
      <trkpt lat="43.20421" lon="1.97684">
        <ele>587.186836</ele>
        <time>2019-03-23T09:23:42Z</time>
      </trkpt>
      <trkpt lat="43.20519" lon="1.97712">
        <ele>589.577547</ele>
        <time>2019-03-23T09:23:53Z</time>
      </trkpt>
      <trkpt lat="43.20621" lon="1.97728">
        <ele>581.636959</ele>
        <time>2019-03-23T09:24:04Z</time>
      </trkpt>
      <trkpt lat="43.20713" lon="1.97752">
        <ele>576.815147</ele>
        <time>2019-03-23T09:24:14Z</time>
      </trkpt>
      <trkpt lat="43.20814" lon="1.97786">
        <ele>576.146739</ele>
        <time>2019-03-23T09:24:25Z</time>
      </trkpt>
      <trkpt lat="43.20912" lon="1.97796">
        <ele>563.777258</ele>
        <time>2019-03-23T09:24:36Z</time>
      </trkpt>
      <trkpt lat="43.21005" lon="1.97888">
        <ele>553.362088</ele>
        <time>2019-03-23T09:24:47Z</time>
      </trkpt>
      <trkpt lat="43.2108" lon="1.9804">
        <ele>543.037974</ele>
        <time>2019-03-23T09:24:58Z</time>
      </trkpt>
      <trkpt lat="43.21152" lon="1.98197">
        <ele>537.853586</ele>
        <time>2019-03-23T09:25:09Z</time>
      </trkpt>
      <trkpt lat="43.21229" lon="1.98347">
        <ele>535.510624</ele>
        <time>2019-03-23T09:25:20Z</time>
      </trkpt>
      <trkpt lat="43.21311" lon="1.98444">
        <ele>531.538512</ele>
        <time>2019-03-23T09:25:30Z</time>
      </trkpt>
      <trkpt lat="43.21408" lon="1.98469">
        <ele>521.595423</ele>
        <time>2019-03-23T09:25:41Z</time>
      </trkpt>
      <trkpt lat="43.21497" lon="1.98443">
        <ele>508.466901</ele>
        <time>2019-03-23T09:25:52Z</time>
      </trkpt>
      <trkpt lat="43.21568" lon="1.98387">
        <ele>494.684295</ele>
        <time>2019-03-23T09:26:03Z</time>
      </trkpt>
      <trkpt lat="43.21636" lon="1.98331">
        <ele>481.487833</ele>
        <time>2019-03-23T09:26:13Z</time>
      </trkpt>
      <trkpt lat="43.21723" lon="1.98286">
        <ele>471.637765</ele>
        <time>2019-03-23T09:26:24Z</time>
      </trkpt>
      <trkpt lat="43.21823" lon="1.98248">
        <ele>465.180132</ele>
        <time>2019-03-23T09:26:35Z</time>
      </trkpt>
      <trkpt lat="43.21935" lon="1.9823">
        <ele>470.688314</ele>
        <time>2019-03-23T09:26:46Z</time>
      </trkpt>
      <trkpt lat="43.22049" lon="1.98262">
        <ele>478.748868</ele>
        <time>2019-03-23T09:26:57Z</time>
      </trkpt>
      <trkpt lat="43.22159" lon="1.98288">
        <ele>464.899271</ele>
        <time>2019-03-23T09:27:08Z</time>
      </trkpt>
      <trkpt lat="43.22217" lon="1.98211">
        <ele>451.121104</ele>
        <time>2019-03-23T09:27:19Z</time>
      </trkpt>
      <trkpt lat="43.22245" lon="1.98089">
        <ele>444.496076</ele>
        <time>2019-03-23T09:27:30Z</time>
      </trkpt>
      <trkpt lat="43.22279" lon="1.97989">
        <ele>450.136531</ele>
        <time>2019-03-23T09:27:41Z</time>
      </trkpt>
      <trkpt lat="43.22311" lon="1.979">
        <ele>454.68013</ele>
        <time>2019-03-23T09:27:51Z</time>
      </trkpt>
      <trkpt lat="43.22333" lon="1.97785">
        <ele>466.814155</ele>
        <time>2019-03-23T09:28:02Z</time>
      </trkpt>
      <trkpt lat="43.22379" lon="1.97672">
        <ele>484.905602</ele>
        <time>2019-03-23T09:28:13Z</time>
      </trkpt>
      <trkpt lat="43.22414" lon="1.97574">
        <ele>505.549375</ele>
        <time>2019-03-23T09:28:24Z</time>
      </trkpt>
      <trkpt lat="43.22415" lon="1.97462">
        <ele>517.103092</ele>
        <time>2019-03-23T09:28:35Z</time>
      </trkpt>
      <trkpt lat="43.22441" lon="1.97367">
        <ele>530.431613</ele>
        <time>2019-03-23T09:28:46Z</time>
      </trkpt>
      <trkpt lat="43.22506" lon="1.97304">
        <ele>542.457256</ele>
        <time>2019-03-23T09:28:57Z</time>
      </trkpt>
      <trkpt lat="43.22584" lon="1.97264">
        <ele>554.799337</ele>
        <time>2019-03-23T09:29:08Z</time>
      </trkpt>
      <trkpt lat="43.22649" lon="1.97218">
        <ele>558.746896</ele>
        <time>2019-03-23T09:29:18Z</time>
      </trkpt>
      <trkpt lat="43.22718" lon="1.97158">
        <ele>564.654351</ele>
        <time>2019-03-23T09:29:29Z</time>
      </trkpt>
      <trkpt lat="43.228" lon="1.97112">
        <ele>574.091739</ele>
        <time>2019-03-23T09:29:40Z</time>
      </trkpt>
      <trkpt lat="43.22889" lon="1.97102">
        <ele>584.671838</ele>
        <time>2019-03-23T09:29:51Z</time>
      </trkpt>
      <trkpt lat="43.22981" lon="1.97103">
        <ele>592.465</ele>
        <time>2019-03-23T09:30:02Z</time>
      </trkpt>
      <trkpt lat="43.23079" lon="1.97146">
        <ele>601.047856</ele>
        <time>2019-03-23T09:30:13Z</time>
      </trkpt>
      <trkpt lat="43.23176" lon="1.97188">
        <ele>616.898677</ele>
        <time>2019-03-23T09:30:24Z</time>
      </trkpt>
      <trkpt lat="43.23267" lon="1.97215">
        <ele>624.737398</ele>
        <time>2019-03-23T09:30:35Z</time>
      </trkpt>
      <trkpt lat="43.23372" lon="1.97254">
        <ele>636.868401</ele>
        <time>2019-03-23T09:30:46Z</time>
      </trkpt>
      <trkpt lat="43.23477" lon="1.97316">
        <ele>651.226446</ele>
        <time>2019-03-23T09:30:57Z</time>
      </trkpt>
      <trkpt lat="43.23563" lon="1.97398">
        <ele>659.682171</ele>
        <time>2019-03-23T09:31:06Z</time>
      </trkpt>
      <trkpt lat="43.23644" lon="1.97487">
        <ele>665.237546</ele>
        <time>2019-03-23T09:31:16Z</time>
      </trkpt>
      <trkpt lat="43.23723" lon="1.97613">
        <ele>673.866963</ele>
        <time>2019-03-23T09:31:27Z</time>
      </trkpt>
      <trkpt lat="43.23783" lon="1.97748">
        <ele>670.313703</ele>
        <time>2019-03-23T09:31:37Z</time>
      </trkpt>
      <trkpt lat="43.2384" lon="1.9789">
        <ele>679.582284</ele>
        <time>2019-03-23T09:31:47Z</time>
      </trkpt>
      <trkpt lat="43.23922" lon="1.98015">
        <ele>685.308368</ele>
        <time>2019-03-23T09:31:58Z</time>
      </trkpt>
      <trkpt lat="43.24013" lon="1.9811">
        <ele>687.14247</ele>
        <time>2019-03-23T09:32:09Z</time>
      </trkpt>
      <trkpt lat="43.24109" lon="1.98197">
        <ele>699.346737</ele>
        <time>2019-03-23T09:32:20Z</time>
      </trkpt>
      <trkpt lat="43.24206" lon="1.98273">
        <ele>704.141813</ele>
        <time>2019-03-23T09:32:31Z</time>
      </trkpt>
      <trkpt lat="43.24307" lon="1.98336">
        <ele>707.830112</ele>
        <time>2019-03-23T09:32:42Z</time>
      </trkpt>
      <trkpt lat="43.2441" lon="1.98381">
        <ele>713.36941</ele>
        <time>2019-03-23T09:32:53Z</time>
      </trkpt>
      <trkpt lat="43.24499" lon="1.98389">
        <ele>718.928164</ele>
        <time>2019-03-23T09:33:03Z</time>
      </trkpt>
      <trkpt lat="43.24593" lon="1.98396">
        <ele>725.46861</ele>
        <time>2019-03-23T09:33:14Z</time>
      </trkpt>
      <trkpt lat="43.24683" lon="1.98436">
        <ele>724.289475</ele>
        <time>2019-03-23T09:33:24Z</time>
      </trkpt>
      <trkpt lat="43.24768" lon="1.985">
        <ele>723.399394</ele>
        <time>2019-03-23T09:33:34Z</time>
      </trkpt>
      <trkpt lat="43.24855" lon="1.98584">
        <ele>714.617461</ele>
        <time>2019-03-23T09:33:44Z</time>
      </trkpt>
      <trkpt lat="43.24946" lon="1.98687">
        <ele>713.149581</ele>
        <time>2019-03-23T09:33:55Z</time>
      </trkpt>
      <trkpt lat="43.25039" lon="1.9879">
        <ele>702.005735</ele>
        <time>2019-03-23T09:34:06Z</time>
      </trkpt>
      <trkpt lat="43.25121" lon="1.98883">
        <ele>686.250447</ele>
        <time>2019-03-23T09:34:16Z</time>
      </trkpt>
      <trkpt lat="43.25212" lon="1.9899">
        <ele>670.299923</ele>
        <time>2019-03-23T09:34:27Z</time>
      </trkpt>
      <trkpt lat="43.25305" lon="1.99098">
        <ele>652.281453</ele>
        <time>2019-03-23T09:34:38Z</time>
      </trkpt>
      <trkpt lat="43.25396" lon="1.99214">
        <ele>635.160565</ele>
        <time>2019-03-23T09:34:49Z</time>
      </trkpt>
      <trkpt lat="43.25486" lon="1.99335">
        <ele>619.865339</ele>
        <time>2019-03-23T09:35:00Z</time>
      </trkpt>
      <trkpt lat="43.25564" lon="1.99446">
        <ele>608.814404</ele>
        <time>2019-03-23T09:35:10Z</time>
      </trkpt>
      <trkpt lat="43.25647" lon="1.99541">
        <ele>599.049828</ele>
        <time>2019-03-23T09:35:20Z</time>
      </trkpt>
      <trkpt lat="43.25731" lon="1.99633">
        <ele>589.674373</ele>
        <time>2019-03-23T09:35:30Z</time>
      </trkpt>
      <trkpt lat="43.25814" lon="1.99731">
        <ele>580.881627</ele>
        <time>2019-03-23T09:35:40Z</time>
      </trkpt>
      <trkpt lat="43.25905" lon="1.99845">
        <ele>578.880676</ele>
        <time>2019-03-23T09:35:51Z</time>
      </trkpt>
      <trkpt lat="43.25984" lon="1.99954">
        <ele>573.006929</ele>
        <time>2019-03-23T09:36:01Z</time>
      </trkpt>
      <trkpt lat="43.26074" lon="2.00072">
        <ele>582.690355</ele>
        <time>2019-03-23T09:36:12Z</time>
      </trkpt>
      <trkpt lat="43.2615" lon="2.00192">
        <ele>590.187012</ele>
        <time>2019-03-23T09:36:22Z</time>
      </trkpt>
      <trkpt lat="43.26233" lon="2.00339">
        <ele>603.848672</ele>
        <time>2019-03-23T09:36:33Z</time>
      </trkpt>
      <trkpt lat="43.26316" lon="2.00474">
        <ele>607.548934</ele>
        <time>2019-03-23T09:36:44Z</time>
      </trkpt>
      <trkpt lat="43.26409" lon="2.00593">
        <ele>607.002987</ele>
        <time>2019-03-23T09:36:55Z</time>
      </trkpt>
      <trkpt lat="43.26496" lon="2.00689">
        <ele>605.299358</ele>
        <time>2019-03-23T09:37:05Z</time>
      </trkpt>
      <trkpt lat="43.2659" lon="2.00765">
        <ele>603.75919</ele>
        <time>2019-03-23T09:37:15Z</time>
      </trkpt>
      <trkpt lat="43.26682" lon="2.00844">
        <ele>599.027879</ele>
        <time>2019-03-23T09:37:25Z</time>
      </trkpt>
      <trkpt lat="43.26766" lon="2.00941">
        <ele>595.838538</ele>
        <time>2019-03-23T09:37:35Z</time>
      </trkpt>
      <trkpt lat="43.26858" lon="2.01054">
        <ele>593.961885</ele>
        <time>2019-03-23T09:37:46Z</time>
      </trkpt>
      <trkpt lat="43.26949" lon="2.01183">
        <ele>589.250533</ele>
        <time>2019-03-23T09:37:57Z</time>
      </trkpt>
      <trkpt lat="43.2703" lon="2.01301">
        <ele>583.912479</ele>
        <time>2019-03-23T09:38:07Z</time>
      </trkpt>
      <trkpt lat="43.2712" lon="2.0142">
        <ele>574.564225</ele>
        <time>2019-03-23T09:38:18Z</time>
      </trkpt>
      <trkpt lat="43.27214" lon="2.01525">
        <ele>567.230079</ele>
        <time>2019-03-23T09:38:29Z</time>
      </trkpt>
      <trkpt lat="43.27311" lon="2.0162">
        <ele>554.599418</ele>
        <time>2019-03-23T09:38:40Z</time>
      </trkpt>
      <trkpt lat="43.27407" lon="2.01712">
        <ele>557.668002</ele>
        <time>2019-03-23T09:38:51Z</time>
      </trkpt>
      <trkpt lat="43.27493" lon="2.01797">
        <ele>549.935829</ele>
        <time>2019-03-23T09:39:01Z</time>
      </trkpt>
      <trkpt lat="43.27588" lon="2.01897">
        <ele>539.524715</ele>
        <time>2019-03-23T09:39:12Z</time>
      </trkpt>
      <trkpt lat="43.27674" lon="2.01987">
        <ele>529.868461</ele>
        <time>2019-03-23T09:39:22Z</time>
      </trkpt>
      <trkpt lat="43.27768" lon="2.02083">
        <ele>521.176955</ele>
        <time>2019-03-23T09:39:33Z</time>
      </trkpt>
      <trkpt lat="43.27851" lon="2.02164">
        <ele>514.455305</ele>
        <time>2019-03-23T09:39:43Z</time>
      </trkpt>
      <trkpt lat="43.2795" lon="2.02197">
        <ele>504.637694</ele>
        <time>2019-03-23T09:39:54Z</time>
      </trkpt>
      <trkpt lat="43.28042" lon="2.02205">
        <ele>493.718066</ele>
        <time>2019-03-23T09:40:05Z</time>
      </trkpt>
      <trkpt lat="43.2814" lon="2.0224">
        <ele>484.901702</ele>
        <time>2019-03-23T09:40:16Z</time>
      </trkpt>
      <trkpt lat="43.28225" lon="2.02269">
        <ele>474.25727</ele>
        <time>2019-03-23T09:40:26Z</time>
      </trkpt>
      <trkpt lat="43.28328" lon="2.02328">
        <ele>462.178583</ele>
        <time>2019-03-23T09:40:37Z</time>
      </trkpt>
      <trkpt lat="43.2842" lon="2.02327">
        <ele>447.348743</ele>
        <time>2019-03-23T09:40:48Z</time>
      </trkpt>
      <trkpt lat="43.28509" lon="2.02339">
        <ele>429.596779</ele>
        <time>2019-03-23T09:40:58Z</time>
      </trkpt>
      <trkpt lat="43.2858" lon="2.02301">
        <ele>410.479716</ele>
        <time>2019-03-23T09:41:08Z</time>
      </trkpt>
      <trkpt lat="43.28627" lon="2.02244">
        <ele>395.640724</ele>
        <time>2019-03-23T09:41:18Z</time>
      </trkpt>
      <trkpt lat="43.28682" lon="2.02208">
        <ele>373.492665</ele>
        <time>2019-03-23T09:41:28Z</time>
      </trkpt>
      <trkpt lat="43.28757" lon="2.02204">
        <ele>364.705611</ele>
        <time>2019-03-23T09:41:38Z</time>
      </trkpt>
      <trkpt lat="43.28819" lon="2.02181">
        <ele>351.06435</ele>
        <time>2019-03-23T09:41:48Z</time>
      </trkpt>
      <trkpt lat="43.28844" lon="2.02105">
        <ele>338.578497</ele>
        <time>2019-03-23T09:41:59Z</time>
      </trkpt>
      <trkpt lat="43.28859" lon="2.02011">
        <ele>325.056118</ele>
        <time>2019-03-23T09:42:10Z</time>
      </trkpt>
      <trkpt lat="43.2889" lon="2.01935">
        <ele>311.820734</ele>
        <time>2019-03-23T09:42:21Z</time>
      </trkpt>
      <trkpt lat="43.28929" lon="2.01862">
        <ele>296.984462</ele>
        <time>2019-03-23T09:42:31Z</time>
      </trkpt>
      <trkpt lat="43.28959" lon="2.01782">
        <ele>288.305879</ele>
        <time>2019-03-23T09:42:42Z</time>
      </trkpt>
      <trkpt lat="43.28987" lon="2.01701">
        <ele>278.867715</ele>
        <time>2019-03-23T09:42:53Z</time>
      </trkpt>
      <trkpt lat="43.29028" lon="2.01622">
        <ele>267.503049</ele>
        <time>2019-03-23T09:43:04Z</time>
      </trkpt>
      <trkpt lat="43.29066" lon="2.01529">
        <ele>257.789046</ele>
        <time>2019-03-23T09:43:14Z</time>
      </trkpt>
      <trkpt lat="43.29103" lon="2.01446">
        <ele>263.03791</ele>
        <time>2019-03-23T09:43:24Z</time>
      </trkpt>
      <trkpt lat="43.29127" lon="2.01359">
        <ele>270.724265</ele>
        <time>2019-03-23T09:43:34Z</time>
      </trkpt>
      <trkpt lat="43.29125" lon="2.01256">
        <ele>267.651207</ele>
        <time>2019-03-23T09:43:44Z</time>
      </trkpt>
      <trkpt lat="43.29126" lon="2.01151">
        <ele>260.251638</ele>
        <time>2019-03-23T09:43:54Z</time>
      </trkpt>
      <trkpt lat="43.29161" lon="2.01043">
        <ele>255.522243</ele>
        <time>2019-03-23T09:44:05Z</time>
      </trkpt>
      <trkpt lat="43.29225" lon="2.00979">
        <ele>248.297244</ele>
        <time>2019-03-23T09:44:16Z</time>
      </trkpt>
      <trkpt lat="43.29266" lon="2.00886">
        <ele>254.420689</ele>
        <time>2019-03-23T09:44:27Z</time>
      </trkpt>
      <trkpt lat="43.29322" lon="2.00801">
        <ele>264.420546</ele>
        <time>2019-03-23T09:44:38Z</time>
      </trkpt>
      <trkpt lat="43.29356" lon="2.00724">
        <ele>277.070486</ele>
        <time>2019-03-23T09:44:49Z</time>
      </trkpt>
      <trkpt lat="43.29362" lon="2.00637">
        <ele>290.63796</ele>
        <time>2019-03-23T09:45:00Z</time>
      </trkpt>
      <trkpt lat="43.29385" lon="2.00561">
        <ele>300.941953</ele>
        <time>2019-03-23T09:45:10Z</time>
      </trkpt>
      <trkpt lat="43.29365" lon="2.00475">
        <ele>306.516004</ele>
        <time>2019-03-23T09:45:20Z</time>
      </trkpt>
      <trkpt lat="43.29353" lon="2.0037">
        <ele>320.258138</ele>
        <time>2019-03-23T09:45:30Z</time>
      </trkpt>
      <trkpt lat="43.29377" lon="2.00303">
        <ele>341.041136</ele>
        <time>2019-03-23T09:45:40Z</time>
      </trkpt>
      <trkpt lat="43.29439" lon="2.00295">
        <ele>352.371211</ele>
        <time>2019-03-23T09:45:50Z</time>
      </trkpt>
      <trkpt lat="43.29511" lon="2.00308">
        <ele>372.676655</ele>
        <time>2019-03-23T09:46:01Z</time>
      </trkpt>
      <trkpt lat="43.2959" lon="2.00309">
        <ele>395.788281</ele>
        <time>2019-03-23T09:46:11Z</time>
      </trkpt>
      <trkpt lat="43.2968" lon="2.00319">
        <ele>411.015604</ele>
        <time>2019-03-23T09:46:22Z</time>
      </trkpt>
      <trkpt lat="43.29769" lon="2.00311">
        <ele>426.930858</ele>
        <time>2019-03-23T09:46:33Z</time>
      </trkpt>
      <trkpt lat="43.29846" lon="2.00277">
        <ele>451.394279</ele>
        <time>2019-03-23T09:46:44Z</time>
      </trkpt>
      <trkpt lat="43.29908" lon="2.00217">
        <ele>468.782766</ele>
        <time>2019-03-23T09:46:55Z</time>
      </trkpt>
      <trkpt lat="43.29965" lon="2.00144">
        <ele>487.798993</ele>
        <time>2019-03-23T09:47:06Z</time>
      </trkpt>
      <trkpt lat="43.30028" lon="2.0008">
        <ele>506.908016</ele>
        <time>2019-03-23T09:47:17Z</time>
      </trkpt>
      <trkpt lat="43.3009" lon="2.00035">
        <ele>525.58325</ele>
        <time>2019-03-23T09:47:27Z</time>
      </trkpt>
      <trkpt lat="43.30161" lon="2.00005">
        <ele>541.391969</ele>
        <time>2019-03-23T09:47:37Z</time>
      </trkpt>
      <trkpt lat="43.3023" lon="1.99967">
        <ele>555.487381</ele>
        <time>2019-03-23T09:47:47Z</time>
      </trkpt>
      <trkpt lat="43.30296" lon="1.99927">
        <ele>575.269034</ele>
        <time>2019-03-23T09:47:57Z</time>
      </trkpt>
      <trkpt lat="43.30364" lon="1.99871">
        <ele>590.846165</ele>
        <time>2019-03-23T09:48:08Z</time>
      </trkpt>
      <trkpt lat="43.30436" lon="1.99822">
        <ele>609.619021</ele>
        <time>2019-03-23T09:48:19Z</time>
      </trkpt>
      <trkpt lat="43.30502" lon="1.99775">
        <ele>624.920151</ele>
        <time>2019-03-23T09:48:29Z</time>
      </trkpt>
      <trkpt lat="43.30573" lon="1.99722">
        <ele>642.869913</ele>
        <time>2019-03-23T09:48:40Z</time>
      </trkpt>
      <trkpt lat="43.30639" lon="1.9965">
        <ele>660.65141</ele>
        <time>2019-03-23T09:48:51Z</time>
      </trkpt>
      <trkpt lat="43.30688" lon="1.99569">
        <ele>673.912224</ele>
        <time>2019-03-23T09:49:01Z</time>
      </trkpt>
      <trkpt lat="43.30721" lon="1.99484">
        <ele>687.029586</ele>
        <time>2019-03-23T09:49:12Z</time>
      </trkpt>
      <trkpt lat="43.30759" lon="1.99409">
        <ele>699.796776</ele>
        <time>2019-03-23T09:49:22Z</time>
      </trkpt>
      <trkpt lat="43.30814" lon="1.99335">
        <ele>716.29025</ele>
        <time>2019-03-23T09:49:33Z</time>
      </trkpt>
      <trkpt lat="43.30841" lon="1.99244">
        <ele>727.04806</ele>
        <time>2019-03-23T09:49:43Z</time>
      </trkpt>
      <trkpt lat="43.30875" lon="1.9916">
        <ele>740.214662</ele>
        <time>2019-03-23T09:49:53Z</time>
      </trkpt>
      <trkpt lat="43.30913" lon="1.99061">
        <ele>749.661361</ele>
        <time>2019-03-23T09:50:04Z</time>
      </trkpt>
      <trkpt lat="43.30962" lon="1.98976">
        <ele>768.31951</ele>
        <time>2019-03-23T09:50:15Z</time>
      </trkpt>
      <trkpt lat="43.31017" lon="1.98895">
        <ele>785.338132</ele>
        <time>2019-03-23T09:50:26Z</time>
      </trkpt>
      <trkpt lat="43.31065" lon="1.98805">
        <ele>801.38403</ele>
        <time>2019-03-23T09:50:37Z</time>
      </trkpt>
      <trkpt lat="43.3111" lon="1.98706">
        <ele>817.01127</ele>
        <time>2019-03-23T09:50:48Z</time>
      </trkpt>
      <trkpt lat="43.31166" lon="1.9863">
        <ele>832.369172</ele>
        <time>2019-03-23T09:50:59Z</time>
      </trkpt>
      <trkpt lat="43.31227" lon="1.98569">
        <ele>845.785719</ele>
        <time>2019-03-23T09:51:10Z</time>
      </trkpt>
      <trkpt lat="43.31278" lon="1.98503">
        <ele>858.999224</ele>
        <time>2019-03-23T09:51:20Z</time>
      </trkpt>
      <trkpt lat="43.31322" lon="1.98414">
        <ele>855.310051</ele>
        <time>2019-03-23T09:51:30Z</time>
      </trkpt>
      <trkpt lat="43.31363" lon="1.98318">
        <ele>866.175331</ele>
        <time>2019-03-23T09:51:40Z</time>
      </trkpt>
      <trkpt lat="43.314" lon="1.9822">
        <ele>870.428484</ele>
        <time>2019-03-23T09:51:50Z</time>
      </trkpt>
      <trkpt lat="43.31447" lon="1.98125">
        <ele>874.524074</ele>
        <time>2019-03-23T09:52:01Z</time>
      </trkpt>
      <trkpt lat="43.31491" lon="1.98022">
        <ele>878.759794</ele>
        <time>2019-03-23T09:52:12Z</time>
      </trkpt>
      <trkpt lat="43.31531" lon="1.97919">
        <ele>883.75561</ele>
        <time>2019-03-23T09:52:23Z</time>
      </trkpt>
      <trkpt lat="43.31577" lon="1.97832">
        <ele>887.538844</ele>
        <time>2019-03-23T09:52:34Z</time>
      </trkpt>
      <trkpt lat="43.31627" lon="1.97751">
        <ele>891.93221</ele>
        <time>2019-03-23T09:52:44Z</time>
      </trkpt>
      <trkpt lat="43.31677" lon="1.97667">
        <ele>894.511276</ele>
        <time>2019-03-23T09:52:54Z</time>
      </trkpt>
      <trkpt lat="43.31733" lon="1.97579">
        <ele>898.169408</ele>
        <time>2019-03-23T09:53:05Z</time>
      </trkpt>
      <trkpt lat="43.31793" lon="1.97509">
        <ele>901.065513</ele>
        <time>2019-03-23T09:53:14Z</time>
      </trkpt>
      <trkpt lat="43.31858" lon="1.97449">
        <ele>903.248579</ele>
        <time>2019-03-23T09:53:24Z</time>
      </trkpt>
      <trkpt lat="43.3192" lon="1.97388">
        <ele>898.489873</ele>
        <time>2019-03-23T09:53:34Z</time>
      </trkpt>
      <trkpt lat="43.3198" lon="1.97321">
        <ele>892.468714</ele>
        <time>2019-03-23T09:53:44Z</time>
      </trkpt>
      <trkpt lat="43.32029" lon="1.97233">
        <ele>885.872543</ele>
        <time>2019-03-23T09:53:54Z</time>
      </trkpt>
      <trkpt lat="43.32071" lon="1.97129">
        <ele>875.861574</ele>
        <time>2019-03-23T09:54:05Z</time>
      </trkpt>
      <trkpt lat="43.3212" lon="1.97039">
        <ele>866.864805</ele>
        <time>2019-03-23T09:54:16Z</time>
      </trkpt>
      <trkpt lat="43.32175" lon="1.96955">
        <ele>851.666178</ele>
        <time>2019-03-23T09:54:27Z</time>
      </trkpt>
      <trkpt lat="43.32233" lon="1.96878">
        <ele>840.649682</ele>
        <time>2019-03-23T09:54:38Z</time>
      </trkpt>
      <trkpt lat="43.32282" lon="1.968">
        <ele>824.202662</ele>
        <time>2019-03-23T09:54:48Z</time>
      </trkpt>
      <trkpt lat="43.32332" lon="1.96706">
        <ele>803.626887</ele>
        <time>2019-03-23T09:54:59Z</time>
      </trkpt>
      <trkpt lat="43.32371" lon="1.96607">
        <ele>785.461555</ele>
        <time>2019-03-23T09:55:09Z</time>
      </trkpt>
      <trkpt lat="43.32412" lon="1.96506">
        <ele>768.323718</ele>
        <time>2019-03-23T09:55:19Z</time>
      </trkpt>
      <trkpt lat="43.32459" lon="1.9641">
        <ele>749.575224</ele>
        <time>2019-03-23T09:55:29Z</time>
      </trkpt>
      <trkpt lat="43.32519" lon="1.96334">
        <ele>731.545355</ele>
        <time>2019-03-23T09:55:39Z</time>
      </trkpt>
      <trkpt lat="43.32585" lon="1.96271">
        <ele>710.336341</ele>
        <time>2019-03-23T09:55:49Z</time>
      </trkpt>
      <trkpt lat="43.3265" lon="1.9622">
        <ele>692.528678</ele>
        <time>2019-03-23T09:55:59Z</time>
      </trkpt>
      <trkpt lat="43.32716" lon="1.96148">
        <ele>674.339817</ele>
        <time>2019-03-23T09:56:10Z</time>
      </trkpt>
      <trkpt lat="43.32737" lon="1.96043">
        <ele>654.721958</ele>
        <time>2019-03-23T09:56:21Z</time>
      </trkpt>
      <trkpt lat="43.3275" lon="1.95948">
        <ele>641.295295</ele>
        <time>2019-03-23T09:56:31Z</time>
      </trkpt>
      <trkpt lat="43.32745" lon="1.95837">
        <ele>630.092192</ele>
        <time>2019-03-23T09:56:42Z</time>
      </trkpt>
      <trkpt lat="43.32728" lon="1.95726">
        <ele>615.702417</ele>
        <time>2019-03-23T09:56:53Z</time>
      </trkpt>
      <trkpt lat="43.32741" lon="1.95617">
        <ele>604.51039</ele>
        <time>2019-03-23T09:57:04Z</time>
      </trkpt>
      <trkpt lat="43.32776" lon="1.95535">
        <ele>600.126742</ele>
        <time>2019-03-23T09:57:14Z</time>
      </trkpt>
      <trkpt lat="43.32811" lon="1.95449">
        <ele>592.244984</ele>
        <time>2019-03-23T09:57:24Z</time>
      </trkpt>
      <trkpt lat="43.32828" lon="1.95347">
        <ele>595.533281</ele>
        <time>2019-03-23T09:57:35Z</time>
      </trkpt>
      <trkpt lat="43.32846" lon="1.95257">
        <ele>602.384957</ele>
        <time>2019-03-23T09:57:45Z</time>
      </trkpt>
      <trkpt lat="43.32869" lon="1.95167">
        <ele>609.417024</ele>
        <time>2019-03-23T09:57:55Z</time>
      </trkpt>
      <trkpt lat="43.32889" lon="1.95073">
        <ele>614.107119</ele>
        <time>2019-03-23T09:58:06Z</time>
      </trkpt>
      <trkpt lat="43.32929" lon="1.94982">
        <ele>626.31594</ele>
        <time>2019-03-23T09:58:17Z</time>
      </trkpt>
      <trkpt lat="43.32989" lon="1.94903">
        <ele>645.52353</ele>
        <time>2019-03-23T09:58:28Z</time>
      </trkpt>
      <trkpt lat="43.33048" lon="1.94828">
        <ele>658.728072</ele>
        <time>2019-03-23T09:58:39Z</time>
      </trkpt>
      <trkpt lat="43.33085" lon="1.94725">
        <ele>666.795889</ele>
        <time>2019-03-23T09:58:50Z</time>
      </trkpt>
      <trkpt lat="43.331" lon="1.94616">
        <ele>670.488719</ele>
        <time>2019-03-23T09:59:00Z</time>
      </trkpt>
      <trkpt lat="43.33109" lon="1.94494">
        <ele>682.606307</ele>
        <time>2019-03-23T09:59:11Z</time>
      </trkpt>
      <trkpt lat="43.33133" lon="1.94387">
        <ele>682.735677</ele>
        <time>2019-03-23T09:59:21Z</time>
      </trkpt>
      <trkpt lat="43.33169" lon="1.94279">
        <ele>695.112463</ele>
        <time>2019-03-23T09:59:32Z</time>
      </trkpt>
      <trkpt lat="43.33208" lon="1.94184">
        <ele>700.283377</ele>
        <time>2019-03-23T09:59:42Z</time>
      </trkpt>
      <trkpt lat="43.33253" lon="1.94081">
        <ele>701.011726</ele>
        <time>2019-03-23T09:59:53Z</time>
      </trkpt>
      <trkpt lat="43.33284" lon="1.93976">
        <ele>692.787473</ele>
        <time>2019-03-23T10:00:03Z</time>
      </trkpt>
      <trkpt lat="43.33301" lon="1.9385">
        <ele>685.533266</ele>
        <time>2019-03-23T10:00:14Z</time>
      </trkpt>
      <trkpt lat="43.333" lon="1.93733">
        <ele>684.880196</ele>
        <time>2019-03-23T10:00:24Z</time>
      </trkpt>
      <trkpt lat="43.33308" lon="1.9362">
        <ele>683.938246</ele>
        <time>2019-03-23T10:00:34Z</time>
      </trkpt>
      <trkpt lat="43.33325" lon="1.93509">
        <ele>684.117223</ele>
        <time>2019-03-23T10:00:44Z</time>
      </trkpt>
      <trkpt lat="43.33349" lon="1.93397">
        <ele>677.211283</ele>
        <time>2019-03-23T10:00:55Z</time>
      </trkpt>
      <trkpt lat="43.33372" lon="1.93293">
        <ele>669.112042</ele>
        <time>2019-03-23T10:01:05Z</time>
      </trkpt>
      <trkpt lat="43.3339" lon="1.93184">
        <ele>662.443119</ele>
        <time>2019-03-23T10:01:15Z</time>
      </trkpt>
      <trkpt lat="43.33398" lon="1.9307">
        <ele>654.196569</ele>
        <time>2019-03-23T10:01:25Z</time>
      </trkpt>
      <trkpt lat="43.33406" lon="1.92956">
        <ele>650.704905</ele>
        <time>2019-03-23T10:01:35Z</time>
      </trkpt>
      <trkpt lat="43.33406" lon="1.92848">
        <ele>643.744208</ele>
        <time>2019-03-23T10:01:45Z</time>
      </trkpt>
      <trkpt lat="43.33411" lon="1.92736">
        <ele>632.289316</ele>
        <time>2019-03-23T10:01:55Z</time>
      </trkpt>
      <trkpt lat="43.33411" lon="1.9262">
        <ele>628.366923</ele>
        <time>2019-03-23T10:02:06Z</time>
      </trkpt>
      <trkpt lat="43.33417" lon="1.92497">
        <ele>623.247368</ele>
        <time>2019-03-23T10:02:17Z</time>
      </trkpt>
      <trkpt lat="43.33433" lon="1.92378">
        <ele>617.648316</ele>
        <time>2019-03-23T10:02:28Z</time>
      </trkpt>
      <trkpt lat="43.33451" lon="1.92276">
        <ele>625.724361</ele>
        <time>2019-03-23T10:02:38Z</time>
      </trkpt>
      <trkpt lat="43.33482" lon="1.92166">
        <ele>631.412905</ele>
        <time>2019-03-23T10:02:49Z</time>
      </trkpt>
      <trkpt lat="43.33512" lon="1.9205">
        <ele>636.161441</ele>
        <time>2019-03-23T10:03:00Z</time>
      </trkpt>
      <trkpt lat="43.33543" lon="1.91941">
        <ele>640.584338</ele>
        <time>2019-03-23T10:03:11Z</time>
      </trkpt>
      <trkpt lat="43.33574" lon="1.91839">
        <ele>641.841938</ele>
        <time>2019-03-23T10:03:21Z</time>
      </trkpt>
      <trkpt lat="43.33606" lon="1.91735">
        <ele>634.408715</ele>
        <time>2019-03-23T10:03:31Z</time>
      </trkpt>
      <trkpt lat="43.33643" lon="1.91639">
        <ele>646.181288</ele>
        <time>2019-03-23T10:03:41Z</time>
      </trkpt>
      <trkpt lat="43.33673" lon="1.91537">
        <ele>658.204681</ele>
        <time>2019-03-23T10:03:51Z</time>
      </trkpt>
      <trkpt lat="43.33692" lon="1.9143">
        <ele>661.257126</ele>
        <time>2019-03-23T10:04:01Z</time>
      </trkpt>
      <trkpt lat="43.33709" lon="1.91307">
        <ele>659.943403</ele>
        <time>2019-03-23T10:04:12Z</time>
      </trkpt>
      <trkpt lat="43.33732" lon="1.91185">
        <ele>661.95985</ele>
        <time>2019-03-23T10:04:23Z</time>
      </trkpt>
      <trkpt lat="43.33755" lon="1.91052">
        <ele>676.858999</ele>
        <time>2019-03-23T10:04:34Z</time>
      </trkpt>
      <trkpt lat="43.33782" lon="1.90945">
        <ele>682.438992</ele>
        <time>2019-03-23T10:04:45Z</time>
      </trkpt>
      <trkpt lat="43.33802" lon="1.90818">
        <ele>677.004263</ele>
        <time>2019-03-23T10:04:56Z</time>
      </trkpt>
      <trkpt lat="43.33815" lon="1.90701">
        <ele>685.295282</ele>
        <time>2019-03-23T10:05:06Z</time>
      </trkpt>
      <trkpt lat="43.33809" lon="1.90572">
        <ele>687.582779</ele>
        <time>2019-03-23T10:05:16Z</time>
      </trkpt>
      <trkpt lat="43.33794" lon="1.90447">
        <ele>689.222412</ele>
        <time>2019-03-23T10:05:26Z</time>
      </trkpt>
      <trkpt lat="43.33759" lon="1.90322">
        <ele>691.868117</ele>
        <time>2019-03-23T10:05:36Z</time>
      </trkpt>
      <trkpt lat="43.33712" lon="1.90201">
        <ele>691.248735</ele>
        <time>2019-03-23T10:05:46Z</time>
      </trkpt>
      <trkpt lat="43.33652" lon="1.90075">
        <ele>694.957432</ele>
        <time>2019-03-23T10:05:57Z</time>
      </trkpt>
      <trkpt lat="43.33611" lon="1.89953">
        <ele>696.763977</ele>
        <time>2019-03-23T10:06:07Z</time>
      </trkpt>
      <trkpt lat="43.33565" lon="1.89821">
        <ele>702.467015</ele>
        <time>2019-03-23T10:06:18Z</time>
      </trkpt>
      <trkpt lat="43.33515" lon="1.89692">
        <ele>704.518427</ele>
        <time>2019-03-23T10:06:29Z</time>
      </trkpt>
      <trkpt lat="43.33488" lon="1.89551">
        <ele>705.789286</ele>
        <time>2019-03-23T10:06:40Z</time>
      </trkpt>
      <trkpt lat="43.33479" lon="1.89416">
        <ele>705.780502</ele>
        <time>2019-03-23T10:06:51Z</time>
      </trkpt>
      <trkpt lat="43.33466" lon="1.89286">
        <ele>704.887008</ele>
        <time>2019-03-23T10:07:01Z</time>
      </trkpt>
      <trkpt lat="43.33463" lon="1.89161">
        <ele>718.207186</ele>
        <time>2019-03-23T10:07:11Z</time>
      </trkpt>
      <trkpt lat="43.33479" lon="1.89044">
        <ele>724.168195</ele>
        <time>2019-03-23T10:07:21Z</time>
      </trkpt>
      <trkpt lat="43.33509" lon="1.88934">
        <ele>729.327747</ele>
        <time>2019-03-23T10:07:31Z</time>
      </trkpt>
      <trkpt lat="43.33533" lon="1.8882">
        <ele>722.840427</ele>
        <time>2019-03-23T10:07:41Z</time>
      </trkpt>
      <trkpt lat="43.33511" lon="1.8868">
        <ele>724.61287</ele>
        <time>2019-03-23T10:07:51Z</time>
      </trkpt>
      <trkpt lat="43.3348" lon="1.88555">
        <ele>721.035317</ele>
        <time>2019-03-23T10:08:01Z</time>
      </trkpt>
      <trkpt lat="43.33461" lon="1.88414">
        <ele>722.001326</ele>
        <time>2019-03-23T10:08:12Z</time>
      </trkpt>
      <trkpt lat="43.33457" lon="1.88265">
        <ele>721.879282</ele>
        <time>2019-03-23T10:08:23Z</time>
      </trkpt>
      <trkpt lat="43.33472" lon="1.88126">
        <ele>729.492066</ele>
        <time>2019-03-23T10:08:34Z</time>
      </trkpt>
      <trkpt lat="43.33498" lon="1.87995">
        <ele>728.875833</ele>
        <time>2019-03-23T10:08:45Z</time>
      </trkpt>
      <trkpt lat="43.33531" lon="1.87865">
        <ele>729.71558</ele>
        <time>2019-03-23T10:08:56Z</time>
      </trkpt>
      <trkpt lat="43.33569" lon="1.87747">
        <ele>729.871448</ele>
        <time>2019-03-23T10:09:06Z</time>
      </trkpt>
      <trkpt lat="43.33601" lon="1.87607">
        <ele>732.262116</ele>
        <time>2019-03-23T10:09:17Z</time>
      </trkpt>
      <trkpt lat="43.33627" lon="1.87486">
        <ele>734.878114</ele>
        <time>2019-03-23T10:09:27Z</time>
      </trkpt>
      <trkpt lat="43.33651" lon="1.87352">
        <ele>734.687989</ele>
        <time>2019-03-23T10:09:37Z</time>
      </trkpt>
      <trkpt lat="43.3366" lon="1.87217">
        <ele>742.082955</ele>
        <time>2019-03-23T10:09:47Z</time>
      </trkpt>
      <trkpt lat="43.33659" lon="1.87074">
        <ele>743.516621</ele>
        <time>2019-03-23T10:09:57Z</time>
      </trkpt>
      <trkpt lat="43.3365" lon="1.86926">
        <ele>746.748602</ele>
        <time>2019-03-23T10:10:07Z</time>
      </trkpt>
      <trkpt lat="43.33641" lon="1.86768">
        <ele>749.399896</ele>
        <time>2019-03-23T10:10:18Z</time>
      </trkpt>
      <trkpt lat="43.33639" lon="1.86616">
        <ele>753.760642</ele>
        <time>2019-03-23T10:10:29Z</time>
      </trkpt>
      <trkpt lat="43.33657" lon="1.86478">
        <ele>750.364305</ele>
        <time>2019-03-23T10:10:40Z</time>
      </trkpt>
      <trkpt lat="43.33663" lon="1.8632">
        <ele>752.98766</ele>
        <time>2019-03-23T10:10:51Z</time>
      </trkpt>
      <trkpt lat="43.33652" lon="1.8616">
        <ele>756.272585</ele>
        <time>2019-03-23T10:11:02Z</time>
      </trkpt>
      <trkpt lat="43.33631" lon="1.86008">
        <ele>764.995109</ele>
        <time>2019-03-23T10:11:13Z</time>
      </trkpt>
      <trkpt lat="43.33608" lon="1.85866">
        <ele>769.049232</ele>
        <time>2019-03-23T10:11:23Z</time>
      </trkpt>
      <trkpt lat="43.3358" lon="1.85728">
        <ele>772.041384</ele>
        <time>2019-03-23T10:11:33Z</time>
      </trkpt>
      <trkpt lat="43.33565" lon="1.85583">
        <ele>772.579816</ele>
        <time>2019-03-23T10:11:43Z</time>
      </trkpt>
      <trkpt lat="43.33559" lon="1.85435">
        <ele>787.764036</ele>
        <time>2019-03-23T10:11:54Z</time>
      </trkpt>
      <trkpt lat="43.33563" lon="1.85315">
        <ele>793.870157</ele>
        <time>2019-03-23T10:12:04Z</time>
      </trkpt>
      <trkpt lat="43.33576" lon="1.85174">
        <ele>801.211472</ele>
        <time>2019-03-23T10:12:15Z</time>
      </trkpt>
      <trkpt lat="43.3357" lon="1.85028">
        <ele>809.718008</ele>
        <time>2019-03-23T10:12:26Z</time>
      </trkpt>
      <trkpt lat="43.33595" lon="1.84901">
        <ele>818.776914</ele>
        <time>2019-03-23T10:12:37Z</time>
      </trkpt>
      <trkpt lat="43.33632" lon="1.84783">
        <ele>819.609992</ele>
        <time>2019-03-23T10:12:48Z</time>
      </trkpt>
      <trkpt lat="43.33641" lon="1.84646">
        <ele>816.791825</ele>
        <time>2019-03-23T10:12:59Z</time>
      </trkpt>
      <trkpt lat="43.33623" lon="1.84497">
        <ele>808.154379</ele>
        <time>2019-03-23T10:13:10Z</time>
      </trkpt>
      <trkpt lat="43.3359" lon="1.84351">
        <ele>798.740667</ele>
        <time>2019-03-23T10:13:21Z</time>
      </trkpt>
      <trkpt lat="43.33551" lon="1.84219">
        <ele>786.00803</ele>
        <time>2019-03-23T10:13:31Z</time>
      </trkpt>
      <trkpt lat="43.33497" lon="1.84086">
        <ele>772.580256</ele>
        <time>2019-03-23T10:13:41Z</time>
      </trkpt>
      <trkpt lat="43.33443" lon="1.83939">
        <ele>759.217683</ele>
        <time>2019-03-23T10:13:52Z</time>
      </trkpt>
      <trkpt lat="43.33394" lon="1.83786">
        <ele>748.402564</ele>
        <time>2019-03-23T10:14:03Z</time>
      </trkpt>
      <trkpt lat="43.33365" lon="1.83633">
        <ele>744.511785</ele>
        <time>2019-03-23T10:14:14Z</time>
      </trkpt>
      <trkpt lat="43.33332" lon="1.83467">
        <ele>734.902282</ele>
        <time>2019-03-23T10:14:25Z</time>
      </trkpt>
      <trkpt lat="43.333" lon="1.83312">
        <ele>725.440468</ele>
        <time>2019-03-23T10:14:36Z</time>
      </trkpt>
      <trkpt lat="43.33288" lon="1.83164">
        <ele>719.045302</ele>
        <time>2019-03-23T10:14:47Z</time>
      </trkpt>
      <trkpt lat="43.33261" lon="1.83019">
        <ele>711.339155</ele>
        <time>2019-03-23T10:14:58Z</time>
      </trkpt>
      <trkpt lat="43.33218" lon="1.82879">
        <ele>703.024197</ele>
        <time>2019-03-23T10:15:08Z</time>
      </trkpt>
      <trkpt lat="43.33187" lon="1.82746">
        <ele>695.924588</ele>
        <time>2019-03-23T10:15:18Z</time>
      </trkpt>
      <trkpt lat="43.33176" lon="1.82614">
        <ele>686.767097</ele>
        <time>2019-03-23T10:15:28Z</time>
      </trkpt>
      <trkpt lat="43.33165" lon="1.82476">
        <ele>679.788777</ele>
        <time>2019-03-23T10:15:38Z</time>
      </trkpt>
      <trkpt lat="43.33152" lon="1.82334">
        <ele>671.515932</ele>
        <time>2019-03-23T10:15:49Z</time>
      </trkpt>
      <trkpt lat="43.33133" lon="1.82191">
        <ele>663.716958</ele>
        <time>2019-03-23T10:16:00Z</time>
      </trkpt>
      <trkpt lat="43.33146" lon="1.82072">
        <ele>657.139704</ele>
        <time>2019-03-23T10:16:10Z</time>
      </trkpt>
      <trkpt lat="43.33181" lon="1.81945">
        <ele>647.224904</ele>
        <time>2019-03-23T10:16:21Z</time>
      </trkpt>
      <trkpt lat="43.33206" lon="1.81823">
        <ele>638.800148</ele>
        <time>2019-03-23T10:16:31Z</time>
      </trkpt>
      <trkpt lat="43.33222" lon="1.81697">
        <ele>629.248545</ele>
        <time>2019-03-23T10:16:42Z</time>
      </trkpt>
      <trkpt lat="43.33227" lon="1.81556">
        <ele>621.818446</ele>
        <time>2019-03-23T10:16:53Z</time>
      </trkpt>
      <trkpt lat="43.33236" lon="1.81422">
        <ele>613.59401</ele>
        <time>2019-03-23T10:17:04Z</time>
      </trkpt>
      <trkpt lat="43.33262" lon="1.81306">
        <ele>612.742734</ele>
        <time>2019-03-23T10:17:14Z</time>
      </trkpt>
      <trkpt lat="43.33307" lon="1.81191">
        <ele>619.717301</ele>
        <time>2019-03-23T10:17:25Z</time>
      </trkpt>
      <trkpt lat="43.33349" lon="1.81089">
        <ele>624.938434</ele>
        <time>2019-03-23T10:17:34Z</time>
      </trkpt>
      <trkpt lat="43.33374" lon="1.8097">
        <ele>626.801595</ele>
        <time>2019-03-23T10:17:44Z</time>
      </trkpt>
      <trkpt lat="43.33387" lon="1.80849">
        <ele>627.641852</ele>
        <time>2019-03-23T10:17:54Z</time>
      </trkpt>
      <trkpt lat="43.33411" lon="1.80736">
        <ele>630.024</ele>
        <time>2019-03-23T10:18:04Z</time>
      </trkpt>
      <trkpt lat="43.33437" lon="1.8061">
        <ele>624.722946</ele>
        <time>2019-03-23T10:18:15Z</time>
      </trkpt>
      <trkpt lat="43.33436" lon="1.80464">
        <ele>638.726479</ele>
        <time>2019-03-23T10:18:26Z</time>
      </trkpt>
      <trkpt lat="43.33456" lon="1.80334">
        <ele>646.243795</ele>
        <time>2019-03-23T10:18:37Z</time>
      </trkpt>
      <trkpt lat="43.33475" lon="1.80194">
        <ele>656.196398</ele>
        <time>2019-03-23T10:18:48Z</time>
      </trkpt>
      <trkpt lat="43.33514" lon="1.80071">
        <ele>671.908871</ele>
        <time>2019-03-23T10:18:59Z</time>
      </trkpt>
      <trkpt lat="43.33568" lon="1.7998">
        <ele>682.507555</ele>
        <time>2019-03-23T10:19:09Z</time>
      </trkpt>
      <trkpt lat="43.33605" lon="1.79833">
        <ele>700.42713</ele>
        <time>2019-03-23T10:19:21Z</time>
      </trkpt>
      <trkpt lat="43.33595" lon="1.79678">
        <ele>712.647886</ele>
        <time>2019-03-23T10:19:32Z</time>
      </trkpt>
      <trkpt lat="43.33548" lon="1.79544">
        <ele>721.509631</ele>
        <time>2019-03-23T10:19:42Z</time>
      </trkpt>
      <trkpt lat="43.33459" lon="1.79418">
        <ele>727.719167</ele>
        <time>2019-03-23T10:19:53Z</time>
      </trkpt>
      <trkpt lat="43.33353" lon="1.79331">
        <ele>730.808693</ele>
        <time>2019-03-23T10:20:03Z</time>
      </trkpt>
      <trkpt lat="43.33255" lon="1.79238">
        <ele>734.214301</ele>
        <time>2019-03-23T10:20:13Z</time>
      </trkpt>
      <trkpt lat="43.3316" lon="1.79116">
        <ele>749.524234</ele>
        <time>2019-03-23T10:20:24Z</time>
      </trkpt>
      <trkpt lat="43.33083" lon="1.78987">
        <ele>753.103482</ele>
        <time>2019-03-23T10:20:35Z</time>
      </trkpt>
      <trkpt lat="43.33007" lon="1.78851">
        <ele>746.870951</ele>
        <time>2019-03-23T10:20:46Z</time>
      </trkpt>
      <trkpt lat="43.32925" lon="1.78743">
        <ele>737.495514</ele>
        <time>2019-03-23T10:20:56Z</time>
      </trkpt>
      <trkpt lat="43.32795" lon="1.78692">
        <ele>731.478881</ele>
        <time>2019-03-23T10:21:07Z</time>
      </trkpt>
      <trkpt lat="43.32665" lon="1.78694">
        <ele>725.60099</ele>
        <time>2019-03-23T10:21:17Z</time>
      </trkpt>
      <trkpt lat="43.32535" lon="1.7871">
        <ele>718.437446</ele>
        <time>2019-03-23T10:21:27Z</time>
      </trkpt>
      <trkpt lat="43.32418" lon="1.78758">
        <ele>711.110259</ele>
        <time>2019-03-23T10:21:37Z</time>
      </trkpt>
      <trkpt lat="43.32287" lon="1.78852">
        <ele>705.563234</ele>
        <time>2019-03-23T10:21:48Z</time>
      </trkpt>
      <trkpt lat="43.32186" lon="1.78954">
        <ele>696.541326</ele>
        <time>2019-03-23T10:21:59Z</time>
      </trkpt>
      <trkpt lat="43.32088" lon="1.79072">
        <ele>688.332676</ele>
        <time>2019-03-23T10:22:09Z</time>
      </trkpt>
      <trkpt lat="43.31975" lon="1.79188">
        <ele>678.242613</ele>
        <time>2019-03-23T10:22:20Z</time>
      </trkpt>
      <trkpt lat="43.31862" lon="1.79319">
        <ele>667.751071</ele>
        <time>2019-03-23T10:22:31Z</time>
      </trkpt>
      <trkpt lat="43.3174" lon="1.7942">
        <ele>660.377387</ele>
        <time>2019-03-23T10:22:42Z</time>
      </trkpt>
      <trkpt lat="43.31627" lon="1.79536">
        <ele>653.912644</ele>
        <time>2019-03-23T10:22:52Z</time>
      </trkpt>
      <trkpt lat="43.31525" lon="1.79673">
        <ele>647.90219</ele>
        <time>2019-03-23T10:23:03Z</time>
      </trkpt>
      <trkpt lat="43.31452" lon="1.79842">
        <ele>638.889424</ele>
        <time>2019-03-23T10:23:14Z</time>
      </trkpt>
      <trkpt lat="43.31378" lon="1.79987">
        <ele>631.894868</ele>
        <time>2019-03-23T10:23:24Z</time>
      </trkpt>
      <trkpt lat="43.31298" lon="1.80127">
        <ele>627.051366</ele>
        <time>2019-03-23T10:23:34Z</time>
      </trkpt>
      <trkpt lat="43.31206" lon="1.80268">
        <ele>621.336707</ele>
        <time>2019-03-23T10:23:45Z</time>
      </trkpt>
      <trkpt lat="43.31136" lon="1.80428">
        <ele>613.468613</ele>
        <time>2019-03-23T10:23:55Z</time>
      </trkpt>
      <trkpt lat="43.3107" lon="1.80594">
        <ele>608.311645</ele>
        <time>2019-03-23T10:24:05Z</time>
      </trkpt>
      <trkpt lat="43.31047" lon="1.80806">
        <ele>599.947524</ele>
        <time>2019-03-23T10:24:17Z</time>
      </trkpt>
      <trkpt lat="43.31001" lon="1.80995">
        <ele>597.361417</ele>
        <time>2019-03-23T10:24:28Z</time>
      </trkpt>
      <trkpt lat="43.30975" lon="1.81181">
        <ele>590.561727</ele>
        <time>2019-03-23T10:24:39Z</time>
      </trkpt>
      <trkpt lat="43.30967" lon="1.81348">
        <ele>582.238846</ele>
        <time>2019-03-23T10:24:49Z</time>
      </trkpt>
      <trkpt lat="43.30893" lon="1.81512">
        <ele>576.130258</ele>
        <time>2019-03-23T10:25:00Z</time>
      </trkpt>
      <trkpt lat="43.30788" lon="1.81648">
        <ele>571.802369</ele>
        <time>2019-03-23T10:25:11Z</time>
      </trkpt>
      <trkpt lat="43.30704" lon="1.81817">
        <ele>555.672609</ele>
        <time>2019-03-23T10:25:22Z</time>
      </trkpt>
      <trkpt lat="43.30642" lon="1.82004">
        <ele>540.891146</ele>
        <time>2019-03-23T10:25:33Z</time>
      </trkpt>
      <trkpt lat="43.3056" lon="1.8214">
        <ele>526.534194</ele>
        <time>2019-03-23T10:25:43Z</time>
      </trkpt>
      <trkpt lat="43.30457" lon="1.82249">
        <ele>511.861767</ele>
        <time>2019-03-23T10:25:53Z</time>
      </trkpt>
      <trkpt lat="43.3035" lon="1.82361">
        <ele>497.680533</ele>
        <time>2019-03-23T10:26:03Z</time>
      </trkpt>
      <trkpt lat="43.30249" lon="1.82464">
        <ele>481.930655</ele>
        <time>2019-03-23T10:26:13Z</time>
      </trkpt>
      <trkpt lat="43.30142" lon="1.82591">
        <ele>463.630607</ele>
        <time>2019-03-23T10:26:24Z</time>
      </trkpt>
      <trkpt lat="43.30041" lon="1.82729">
        <ele>447.721511</ele>
        <time>2019-03-23T10:26:35Z</time>
      </trkpt>
      <trkpt lat="43.29957" lon="1.8289">
        <ele>434.028567</ele>
        <time>2019-03-23T10:26:46Z</time>
      </trkpt>
      <trkpt lat="43.29882" lon="1.83055">
        <ele>419.967106</ele>
        <time>2019-03-23T10:26:57Z</time>
      </trkpt>
      <trkpt lat="43.29911" lon="1.83221">
        <ele>413.106327</ele>
        <time>2019-03-23T10:27:08Z</time>
      </trkpt>
      <trkpt lat="43.29996" lon="1.83303">
        <ele>407.738247</ele>
        <time>2019-03-23T10:27:18Z</time>
      </trkpt>
      <trkpt lat="43.3009" lon="1.83283">
        <ele>401.430874</ele>
        <time>2019-03-23T10:27:28Z</time>
      </trkpt>
      <trkpt lat="43.3016" lon="1.83211">
        <ele>393.14266</ele>
        <time>2019-03-23T10:27:38Z</time>
      </trkpt>
      <trkpt lat="43.30201" lon="1.83108">
        <ele>382.316105</ele>
        <time>2019-03-23T10:27:48Z</time>
      </trkpt>
      <trkpt lat="43.30196" lon="1.82999">
        <ele>375.880976</ele>
        <time>2019-03-23T10:27:59Z</time>
      </trkpt>
      <trkpt lat="43.30099" lon="1.83038">
        <ele>383.372936</ele>
        <time>2019-03-23T10:28:09Z</time>
      </trkpt>
      <trkpt lat="43.30027" lon="1.8318">
        <ele>392.105078</ele>
        <time>2019-03-23T10:28:20Z</time>
      </trkpt>
      <trkpt lat="43.29946" lon="1.83319">
        <ele>402.778393</ele>
        <time>2019-03-23T10:28:31Z</time>
      </trkpt>
      <trkpt lat="43.29833" lon="1.83409">
        <ele>430.317577</ele>
        <time>2019-03-23T10:28:42Z</time>
      </trkpt>
      <trkpt lat="43.2974" lon="1.83486">
        <ele>445.37857</ele>
        <time>2019-03-23T10:28:52Z</time>
      </trkpt>
      <trkpt lat="43.29644" lon="1.83591">
        <ele>453.539328</ele>
        <time>2019-03-23T10:29:03Z</time>
      </trkpt>
      <trkpt lat="43.29536" lon="1.83677">
        <ele>479.478468</ele>
        <time>2019-03-23T10:29:14Z</time>
      </trkpt>
      <trkpt lat="43.29435" lon="1.83781">
        <ele>493.752341</ele>
        <time>2019-03-23T10:29:25Z</time>
      </trkpt>
      <trkpt lat="43.2935" lon="1.83899">
        <ele>513.664669</ele>
        <time>2019-03-23T10:29:35Z</time>
      </trkpt>
      <trkpt lat="43.2928" lon="1.84059">
        <ele>534.625336</ele>
        <time>2019-03-23T10:29:45Z</time>
      </trkpt>
      <trkpt lat="43.29222" lon="1.84206">
        <ele>550.399882</ele>
        <time>2019-03-23T10:29:55Z</time>
      </trkpt>
      <trkpt lat="43.29248" lon="1.84355">
        <ele>570.153149</ele>
        <time>2019-03-23T10:30:05Z</time>
      </trkpt>
      <trkpt lat="43.29322" lon="1.84454">
        <ele>585.747117</ele>
        <time>2019-03-23T10:30:15Z</time>
      </trkpt>
      <trkpt lat="43.29405" lon="1.84549">
        <ele>601.706782</ele>
        <time>2019-03-23T10:30:26Z</time>
      </trkpt>
      <trkpt lat="43.29501" lon="1.84617">
        <ele>601.052337</ele>
        <time>2019-03-23T10:30:37Z</time>
      </trkpt>
      <trkpt lat="43.29594" lon="1.84661">
        <ele>598.988154</ele>
        <time>2019-03-23T10:30:48Z</time>
      </trkpt>
      <trkpt lat="43.29693" lon="1.84683">
        <ele>580.356467</ele>
        <time>2019-03-23T10:30:59Z</time>
      </trkpt>
      <trkpt lat="43.29796" lon="1.84711">
        <ele>561.481415</ele>
        <time>2019-03-23T10:31:10Z</time>
      </trkpt>
      <trkpt lat="43.29894" lon="1.8475">
        <ele>544.947464</ele>
        <time>2019-03-23T10:31:21Z</time>
      </trkpt>
      <trkpt lat="43.29983" lon="1.84747">
        <ele>527.596354</ele>
        <time>2019-03-23T10:31:31Z</time>
      </trkpt>
      <trkpt lat="43.3008" lon="1.8474">
        <ele>511.215409</ele>
        <time>2019-03-23T10:31:42Z</time>
      </trkpt>
      <trkpt lat="43.30176" lon="1.84717">
        <ele>508.267324</ele>
        <time>2019-03-23T10:31:52Z</time>
      </trkpt>
      <trkpt lat="43.30265" lon="1.84688">
        <ele>510.054354</ele>
        <time>2019-03-23T10:32:03Z</time>
      </trkpt>
      <trkpt lat="43.30335" lon="1.8465">
        <ele>512.393839</ele>
        <time>2019-03-23T10:32:13Z</time>
      </trkpt>
      <trkpt lat="43.30405" lon="1.84603">
        <ele>506.06668</ele>
        <time>2019-03-23T10:32:23Z</time>
      </trkpt>
      <trkpt lat="43.30486" lon="1.84519">
        <ele>492.577438</ele>
        <time>2019-03-23T10:32:35Z</time>
      </trkpt>
      <trkpt lat="43.30544" lon="1.84437">
        <ele>475.136307</ele>
        <time>2019-03-23T10:32:46Z</time>
      </trkpt>
      <trkpt lat="43.30586" lon="1.84324">
        <ele>463.39589</ele>
        <time>2019-03-23T10:32:56Z</time>
      </trkpt>
      <trkpt lat="43.30619" lon="1.84208">
        <ele>459.972383</ele>
        <time>2019-03-23T10:33:07Z</time>
      </trkpt>
      <trkpt lat="43.30585" lon="1.84113">
        <ele>476.85191</ele>
        <time>2019-03-23T10:33:18Z</time>
      </trkpt>
      <trkpt lat="43.30477" lon="1.84216">
        <ele>483.944916</ele>
        <time>2019-03-23T10:33:29Z</time>
      </trkpt>
      <trkpt lat="43.3038" lon="1.84336">
        <ele>487.791324</ele>
        <time>2019-03-23T10:33:39Z</time>
      </trkpt>
      <trkpt lat="43.30259" lon="1.84428">
        <ele>482.011158</ele>
        <time>2019-03-23T10:33:50Z</time>
      </trkpt>
      <trkpt lat="43.30131" lon="1.84497">
        <ele>487.262299</ele>
        <time>2019-03-23T10:34:01Z</time>
      </trkpt>
      <trkpt lat="43.30012" lon="1.84521">
        <ele>502.464658</ele>
        <time>2019-03-23T10:34:11Z</time>
      </trkpt>
      <trkpt lat="43.29988" lon="1.84661">
        <ele>509.725515</ele>
        <time>2019-03-23T10:34:21Z</time>
      </trkpt>
      <trkpt lat="43.30067" lon="1.84717">
        <ele>524.878164</ele>
        <time>2019-03-23T10:34:32Z</time>
      </trkpt>
      <trkpt lat="43.30134" lon="1.84674">
        <ele>533.231506</ele>
        <time>2019-03-23T10:34:43Z</time>
      </trkpt>
      <trkpt lat="43.30195" lon="1.84626">
        <ele>554.852477</ele>
        <time>2019-03-23T10:34:54Z</time>
      </trkpt>
      <trkpt lat="43.30249" lon="1.84565">
        <ele>563.536728</ele>
        <time>2019-03-23T10:35:04Z</time>
      </trkpt>
      <trkpt lat="43.3033" lon="1.84518">
        <ele>573.192459</ele>
        <time>2019-03-23T10:35:14Z</time>
      </trkpt>
      <trkpt lat="43.30393" lon="1.84452">
        <ele>581.507596</ele>
        <time>2019-03-23T10:35:25Z</time>
      </trkpt>
      <trkpt lat="43.30455" lon="1.84393">
        <ele>595.48127</ele>
        <time>2019-03-23T10:35:35Z</time>
      </trkpt>
      <trkpt lat="43.30539" lon="1.84354">
        <ele>607.716819</ele>
        <time>2019-03-23T10:35:45Z</time>
      </trkpt>
      <trkpt lat="43.30623" lon="1.84339">
        <ele>615.570731</ele>
        <time>2019-03-23T10:35:55Z</time>
      </trkpt>
      <trkpt lat="43.30705" lon="1.84319">
        <ele>627.10567</ele>
        <time>2019-03-23T10:36:05Z</time>
      </trkpt>
      <trkpt lat="43.30769" lon="1.84248">
        <ele>638.880807</ele>
        <time>2019-03-23T10:36:16Z</time>
      </trkpt>
      <trkpt lat="43.30817" lon="1.84124">
        <ele>649.867549</ele>
        <time>2019-03-23T10:36:28Z</time>
      </trkpt>
      <trkpt lat="43.30841" lon="1.83994">
        <ele>659.276527</ele>
        <time>2019-03-23T10:36:39Z</time>
      </trkpt>
      <trkpt lat="43.30747" lon="1.83908">
        <ele>669.325091</ele>
        <time>2019-03-23T10:36:50Z</time>
      </trkpt>
      <trkpt lat="43.30619" lon="1.83913">
        <ele>684.427965</ele>
        <time>2019-03-23T10:37:00Z</time>
      </trkpt>
      <trkpt lat="43.3047" lon="1.83936">
        <ele>699.51165</ele>
        <time>2019-03-23T10:37:12Z</time>
      </trkpt>
      <trkpt lat="43.30318" lon="1.83963">
        <ele>712.452916</ele>
        <time>2019-03-23T10:37:23Z</time>
      </trkpt>
      <trkpt lat="43.30169" lon="1.83987">
        <ele>726.813335</ele>
        <time>2019-03-23T10:37:34Z</time>
      </trkpt>
      <trkpt lat="43.30035" lon="1.83992">
        <ele>735.306007</ele>
        <time>2019-03-23T10:37:44Z</time>
      </trkpt>
      <trkpt lat="43.29899" lon="1.83991">
        <ele>750.944111</ele>
        <time>2019-03-23T10:37:53Z</time>
      </trkpt>
      <trkpt lat="43.29766" lon="1.83988">
        <ele>760.548498</ele>
        <time>2019-03-23T10:38:03Z</time>
      </trkpt>
      <trkpt lat="43.29616" lon="1.83989">
        <ele>776.778205</ele>
        <time>2019-03-23T10:38:14Z</time>
      </trkpt>
      <trkpt lat="43.29466" lon="1.83991">
        <ele>788.844558</ele>
        <time>2019-03-23T10:38:25Z</time>
      </trkpt>
      <trkpt lat="43.29319" lon="1.8399">
        <ele>798.172243</ele>
        <time>2019-03-23T10:38:36Z</time>
      </trkpt>
      <trkpt lat="43.29168" lon="1.84023">
        <ele>807.059134</ele>
        <time>2019-03-23T10:38:47Z</time>
      </trkpt>
      <trkpt lat="43.29035" lon="1.84062">
        <ele>817.459026</ele>
        <time>2019-03-23T10:38:57Z</time>
      </trkpt>
      <trkpt lat="43.28891" lon="1.84137">
        <ele>827.561424</ele>
        <time>2019-03-23T10:39:08Z</time>
      </trkpt>
      <trkpt lat="43.28753" lon="1.84227">
        <ele>843.02656</ele>
        <time>2019-03-23T10:39:19Z</time>
      </trkpt>
      <trkpt lat="43.2862" lon="1.84331">
        <ele>854.895008</ele>
        <time>2019-03-23T10:39:30Z</time>
      </trkpt>
      <trkpt lat="43.28504" lon="1.84451">
        <ele>861.998994</ele>
        <time>2019-03-23T10:39:40Z</time>
      </trkpt>
      <trkpt lat="43.28381" lon="1.84569">
        <ele>877.961393</ele>
        <time>2019-03-23T10:39:51Z</time>
      </trkpt>
      <trkpt lat="43.28252" lon="1.84649">
        <ele>889.858005</ele>
        <time>2019-03-23T10:40:02Z</time>
      </trkpt>
      <trkpt lat="43.28128" lon="1.84719">
        <ele>897.372348</ele>
        <time>2019-03-23T10:40:12Z</time>
      </trkpt>
      <trkpt lat="43.28005" lon="1.84793">
        <ele>904.735371</ele>
        <time>2019-03-23T10:40:22Z</time>
      </trkpt>
      <trkpt lat="43.27881" lon="1.84885">
        <ele>906.243003</ele>
        <time>2019-03-23T10:40:33Z</time>
      </trkpt>
      <trkpt lat="43.27749" lon="1.84989">
        <ele>905.971776</ele>
        <time>2019-03-23T10:40:44Z</time>
      </trkpt>
      <trkpt lat="43.27632" lon="1.8508">
        <ele>912.004383</ele>
        <time>2019-03-23T10:40:54Z</time>
      </trkpt>
      <trkpt lat="43.27508" lon="1.8519">
        <ele>907.993397</ele>
        <time>2019-03-23T10:41:05Z</time>
      </trkpt>
      <trkpt lat="43.27395" lon="1.853">
        <ele>911.482478</ele>
        <time>2019-03-23T10:41:15Z</time>
      </trkpt>
      <trkpt lat="43.2727" lon="1.85424">
        <ele>918.529933</ele>
        <time>2019-03-23T10:41:26Z</time>
      </trkpt>
      <trkpt lat="43.27162" lon="1.8552">
        <ele>921.628453</ele>
        <time>2019-03-23T10:41:36Z</time>
      </trkpt>
      <trkpt lat="43.27037" lon="1.85627">
        <ele>931.173515</ele>
        <time>2019-03-23T10:41:47Z</time>
      </trkpt>
      <trkpt lat="43.26925" lon="1.85726">
        <ele>929.729948</ele>
        <time>2019-03-23T10:41:57Z</time>
      </trkpt>
      <trkpt lat="43.268" lon="1.8583">
        <ele>936.486704</ele>
        <time>2019-03-23T10:42:08Z</time>
      </trkpt>
      <trkpt lat="43.26681" lon="1.85952">
        <ele>917.68585</ele>
        <time>2019-03-23T10:42:19Z</time>
      </trkpt>
      <trkpt lat="43.26566" lon="1.86085">
        <ele>910.705945</ele>
        <time>2019-03-23T10:42:30Z</time>
      </trkpt>
      <trkpt lat="43.26452" lon="1.86231">
        <ele>892.949582</ele>
        <time>2019-03-23T10:42:41Z</time>
      </trkpt>
      <trkpt lat="43.26336" lon="1.86396">
        <ele>894.890642</ele>
        <time>2019-03-23T10:42:53Z</time>
      </trkpt>
      <trkpt lat="43.2622" lon="1.86531">
        <ele>889.311562</ele>
        <time>2019-03-23T10:43:04Z</time>
      </trkpt>
      <trkpt lat="43.26099" lon="1.86654">
        <ele>881.537077</ele>
        <time>2019-03-23T10:43:15Z</time>
      </trkpt>
      <trkpt lat="43.25988" lon="1.86758">
        <ele>875.198139</ele>
        <time>2019-03-23T10:43:25Z</time>
      </trkpt>
      <trkpt lat="43.25877" lon="1.86862">
        <ele>866.150154</ele>
        <time>2019-03-23T10:43:35Z</time>
      </trkpt>
      <trkpt lat="43.25773" lon="1.86981">
        <ele>852.38128</ele>
        <time>2019-03-23T10:43:45Z</time>
      </trkpt>
      <trkpt lat="43.25672" lon="1.87105">
        <ele>852.142278</ele>
        <time>2019-03-23T10:43:55Z</time>
      </trkpt>
      <trkpt lat="43.25568" lon="1.87227">
        <ele>846.153833</ele>
        <time>2019-03-23T10:44:05Z</time>
      </trkpt>
      <trkpt lat="43.25458" lon="1.87337">
        <ele>838.581639</ele>
        <time>2019-03-23T10:44:15Z</time>
      </trkpt>
      <trkpt lat="43.25347" lon="1.87463">
        <ele>829.644757</ele>
        <time>2019-03-23T10:44:26Z</time>
      </trkpt>
      <trkpt lat="43.2523" lon="1.87596">
        <ele>815.752795</ele>
        <time>2019-03-23T10:44:37Z</time>
      </trkpt>
      <trkpt lat="43.25106" lon="1.87716">
        <ele>817.18187</ele>
        <time>2019-03-23T10:44:48Z</time>
      </trkpt>
      <trkpt lat="43.2498" lon="1.8783">
        <ele>808.629351</ele>
        <time>2019-03-23T10:44:59Z</time>
      </trkpt>
      <trkpt lat="43.24869" lon="1.87939">
        <ele>801.458598</ele>
        <time>2019-03-23T10:45:09Z</time>
      </trkpt>
      <trkpt lat="43.24754" lon="1.88066">
        <ele>792.719347</ele>
        <time>2019-03-23T10:45:20Z</time>
      </trkpt>
      <trkpt lat="43.24675" lon="1.8822">
        <ele>783.258571</ele>
        <time>2019-03-23T10:45:30Z</time>
      </trkpt>
      <trkpt lat="43.24598" lon="1.88395">
        <ele>773.637295</ele>
        <time>2019-03-23T10:45:41Z</time>
      </trkpt>
      <trkpt lat="43.24515" lon="1.88564">
        <ele>763.242066</ele>
        <time>2019-03-23T10:45:52Z</time>
      </trkpt>
      <trkpt lat="43.24421" lon="1.88731">
        <ele>758.538475</ele>
        <time>2019-03-23T10:46:03Z</time>
      </trkpt>
      <trkpt lat="43.24308" lon="1.88871">
        <ele>745.627046</ele>
        <time>2019-03-23T10:46:15Z</time>
      </trkpt>
      <trkpt lat="43.24193" lon="1.88989">
        <ele>742.932112</ele>
        <time>2019-03-23T10:46:25Z</time>
      </trkpt>
      <trkpt lat="43.2406" lon="1.89115">
        <ele>737.224143</ele>
        <time>2019-03-23T10:46:36Z</time>
      </trkpt>
      <trkpt lat="43.2394" lon="1.89254">
        <ele>727.469449</ele>
        <time>2019-03-23T10:46:46Z</time>
      </trkpt>
      <trkpt lat="43.2382" lon="1.8938">
        <ele>718.679722</ele>
        <time>2019-03-23T10:46:57Z</time>
      </trkpt>
      <trkpt lat="43.23689" lon="1.89493">
        <ele>715.90939</ele>
        <time>2019-03-23T10:47:08Z</time>
      </trkpt>
      <trkpt lat="43.23573" lon="1.89613">
        <ele>711.900714</ele>
        <time>2019-03-23T10:47:18Z</time>
      </trkpt>
      <trkpt lat="43.23466" lon="1.8975">
        <ele>713.81163</ele>
        <time>2019-03-23T10:47:29Z</time>
      </trkpt>
      <trkpt lat="43.23355" lon="1.89879">
        <ele>720.075257</ele>
        <time>2019-03-23T10:47:40Z</time>
      </trkpt>
      <trkpt lat="43.2325" lon="1.90001">
        <ele>720.238182</ele>
        <time>2019-03-23T10:47:50Z</time>
      </trkpt>
      <trkpt lat="43.23132" lon="1.90107">
        <ele>709.389812</ele>
        <time>2019-03-23T10:48:00Z</time>
      </trkpt>
      <trkpt lat="43.23009" lon="1.90217">
        <ele>725.208013</ele>
        <time>2019-03-23T10:48:11Z</time>
      </trkpt>
      <trkpt lat="43.22899" lon="1.90324">
        <ele>730.539605</ele>
        <time>2019-03-23T10:48:21Z</time>
      </trkpt>
      <trkpt lat="43.22812" lon="1.90458">
        <ele>744.961666</ele>
        <time>2019-03-23T10:48:31Z</time>
      </trkpt>
      <trkpt lat="43.2272" lon="1.90604">
        <ele>755.33274</ele>
        <time>2019-03-23T10:48:42Z</time>
      </trkpt>
      <trkpt lat="43.22624" lon="1.90759">
        <ele>761.575804</ele>
        <time>2019-03-23T10:48:53Z</time>
      </trkpt>
      <trkpt lat="43.22528" lon="1.90925">
        <ele>763.17527</ele>
        <time>2019-03-23T10:49:05Z</time>
      </trkpt>
      <trkpt lat="43.22472" lon="1.91086">
        <ele>766.487753</ele>
        <time>2019-03-23T10:49:15Z</time>
      </trkpt>
      <trkpt lat="43.22407" lon="1.91265">
        <ele>770.543928</ele>
        <time>2019-03-23T10:49:26Z</time>
      </trkpt>
      <trkpt lat="43.2232" lon="1.91446">
        <ele>775.598088</ele>
        <time>2019-03-23T10:49:38Z</time>
      </trkpt>
      <trkpt lat="43.22222" lon="1.91579">
        <ele>778.826875</ele>
        <time>2019-03-23T10:49:48Z</time>
      </trkpt>
      <trkpt lat="43.22097" lon="1.91701">
        <ele>781.964454</ele>
        <time>2019-03-23T10:49:59Z</time>
      </trkpt>
      <trkpt lat="43.21962" lon="1.91809">
        <ele>776.985006</ele>
        <time>2019-03-23T10:50:10Z</time>
      </trkpt>
      <trkpt lat="43.21831" lon="1.91921">
        <ele>775.652891</ele>
        <time>2019-03-23T10:50:21Z</time>
      </trkpt>
      <trkpt lat="43.21705" lon="1.92006">
        <ele>779.653769</ele>
        <time>2019-03-23T10:50:31Z</time>
      </trkpt>
      <trkpt lat="43.21582" lon="1.9211">
        <ele>773.57975</ele>
        <time>2019-03-23T10:50:42Z</time>
      </trkpt>
      <trkpt lat="43.21481" lon="1.92253">
        <ele>768.330306</ele>
        <time>2019-03-23T10:50:53Z</time>
      </trkpt>
      <trkpt lat="43.2139" lon="1.92392">
        <ele>763.717278</ele>
        <time>2019-03-23T10:51:03Z</time>
      </trkpt>
      <trkpt lat="43.21281" lon="1.92553">
        <ele>770.990003</ele>
        <time>2019-03-23T10:51:14Z</time>
      </trkpt>
      <trkpt lat="43.21164" lon="1.92709">
        <ele>779.692045</ele>
        <time>2019-03-23T10:51:26Z</time>
      </trkpt>
      <trkpt lat="43.2104" lon="1.92823">
        <ele>786.419749</ele>
        <time>2019-03-23T10:51:37Z</time>
      </trkpt>
      <trkpt lat="43.20907" lon="1.92903">
        <ele>789.553621</ele>
        <time>2019-03-23T10:51:48Z</time>
      </trkpt>
      <trkpt lat="43.20796" lon="1.93043">
        <ele>800.424806</ele>
        <time>2019-03-23T10:51:59Z</time>
      </trkpt>
      <trkpt lat="43.20733" lon="1.93236">
        <ele>801.673814</ele>
        <time>2019-03-23T10:52:10Z</time>
      </trkpt>
      <trkpt lat="43.20688" lon="1.93418">
        <ele>809.659914</ele>
        <time>2019-03-23T10:52:20Z</time>
      </trkpt>
      <trkpt lat="43.20635" lon="1.93613">
        <ele>814.095867</ele>
        <time>2019-03-23T10:52:31Z</time>
      </trkpt>
      <trkpt lat="43.20577" lon="1.9381">
        <ele>814.635927</ele>
        <time>2019-03-23T10:52:42Z</time>
      </trkpt>
      <trkpt lat="43.20498" lon="1.93988">
        <ele>804.887068</ele>
        <time>2019-03-23T10:52:53Z</time>
      </trkpt>
      <trkpt lat="43.20388" lon="1.94139">
        <ele>809.228082</ele>
        <time>2019-03-23T10:53:04Z</time>
      </trkpt>
      <trkpt lat="43.20314" lon="1.9432">
        <ele>810.735305</ele>
        <time>2019-03-23T10:53:15Z</time>
      </trkpt>
      <trkpt lat="43.20264" lon="1.9452">
        <ele>808.465351</ele>
        <time>2019-03-23T10:53:26Z</time>
      </trkpt>
      <trkpt lat="43.2022" lon="1.94742">
        <ele>798.25387</ele>
        <time>2019-03-23T10:53:38Z</time>
      </trkpt>
      <trkpt lat="43.20146" lon="1.94917">
        <ele>778.797917</ele>
        <time>2019-03-23T10:53:48Z</time>
      </trkpt>
      <trkpt lat="43.20041" lon="1.95064">
        <ele>763.177782</ele>
        <time>2019-03-23T10:53:59Z</time>
      </trkpt>
      <trkpt lat="43.19956" lon="1.95243">
        <ele>745.146041</ele>
        <time>2019-03-23T10:54:10Z</time>
      </trkpt>
      <trkpt lat="43.19921" lon="1.95422">
        <ele>732.68803</ele>
        <time>2019-03-23T10:54:20Z</time>
      </trkpt>
      <trkpt lat="43.19896" lon="1.95599">
        <ele>725.205053</ele>
        <time>2019-03-23T10:54:30Z</time>
      </trkpt>
      <trkpt lat="43.19868" lon="1.95787">
        <ele>713.06436</ele>
        <time>2019-03-23T10:54:42Z</time>
      </trkpt>
      <trkpt lat="43.19838" lon="1.9595">
        <ele>705.411786</ele>
        <time>2019-03-23T10:54:52Z</time>
      </trkpt>
      <trkpt lat="43.19894" lon="1.96076">
        <ele>688.098371</ele>
        <time>2019-03-23T10:55:03Z</time>
      </trkpt>
      <trkpt lat="43.19975" lon="1.96159">
        <ele>677.53561</ele>
        <time>2019-03-23T10:55:14Z</time>
      </trkpt>
      <trkpt lat="43.2003" lon="1.96289">
        <ele>659.586869</ele>
        <time>2019-03-23T10:55:24Z</time>
      </trkpt>
      <trkpt lat="43.19985" lon="1.96468">
        <ele>631.559254</ele>
        <time>2019-03-23T10:55:35Z</time>
      </trkpt>
      <trkpt lat="43.19921" lon="1.96619">
        <ele>608.039968</ele>
        <time>2019-03-23T10:55:45Z</time>
      </trkpt>
      <trkpt lat="43.19861" lon="1.96772">
        <ele>592.293152</ele>
        <time>2019-03-23T10:55:56Z</time>
      </trkpt>
      <trkpt lat="43.19781" lon="1.96941">
        <ele>566.79941</ele>
        <time>2019-03-23T10:56:08Z</time>
      </trkpt>
      <trkpt lat="43.19701" lon="1.97076">
        <ele>549.542938</ele>
        <time>2019-03-23T10:56:18Z</time>
      </trkpt>
      <trkpt lat="43.19607" lon="1.97226">
        <ele>536.08833</ele>
        <time>2019-03-23T10:56:29Z</time>
      </trkpt>
      <trkpt lat="43.19522" lon="1.97371">
        <ele>523.645958</ele>
        <time>2019-03-23T10:56:40Z</time>
      </trkpt>
      <trkpt lat="43.19434" lon="1.97517">
        <ele>500.613676</ele>
        <time>2019-03-23T10:56:51Z</time>
      </trkpt>
      <trkpt lat="43.19355" lon="1.97662">
        <ele>482.241274</ele>
        <time>2019-03-23T10:57:02Z</time>
      </trkpt>
      <trkpt lat="43.19262" lon="1.97768">
        <ele>467.491827</ele>
        <time>2019-03-23T10:57:12Z</time>
      </trkpt>
      <trkpt lat="43.19223" lon="1.97907">
        <ele>441.328598</ele>
        <time>2019-03-23T10:57:23Z</time>
      </trkpt>
      <trkpt lat="43.19305" lon="1.97853">
        <ele>415.520671</ele>
        <time>2019-03-23T10:57:34Z</time>
      </trkpt>
      <trkpt lat="43.19371" lon="1.97782">
        <ele>403.925498</ele>
        <time>2019-03-23T10:57:44Z</time>
      </trkpt>
      <trkpt lat="43.19396" lon="1.97673">
        <ele>393.408041</ele>
        <time>2019-03-23T10:57:55Z</time>
      </trkpt>
      <trkpt lat="43.19446" lon="1.97589">
        <ele>372.401414</ele>
        <time>2019-03-23T10:58:05Z</time>
      </trkpt>
      <trkpt lat="43.1948" lon="1.97508">
        <ele>363.885217</ele>
        <time>2019-03-23T10:58:16Z</time>
      </trkpt>
      <trkpt lat="43.19401" lon="1.97579">
        <ele>349.978404</ele>
        <time>2019-03-23T10:58:26Z</time>
      </trkpt>
      <trkpt lat="43.19325" lon="1.9771">
        <ele>340.271238</ele>
        <time>2019-03-23T10:58:36Z</time>
      </trkpt>
      <trkpt lat="43.19236" lon="1.97846">
        <ele>332.977786</ele>
        <time>2019-03-23T10:58:47Z</time>
      </trkpt>
      <trkpt lat="43.19182" lon="1.97989">
        <ele>335.724238</ele>
        <time>2019-03-23T10:58:57Z</time>
      </trkpt>
      <trkpt lat="43.19115" lon="1.98075">
        <ele>347.15753</ele>
        <time>2019-03-23T10:59:08Z</time>
      </trkpt>
      <trkpt lat="43.19155" lon="1.98016">
        <ele>343.887839</ele>
        <time>2019-03-23T10:59:18Z</time>
      </trkpt>
      <trkpt lat="43.19225" lon="1.97955">
        <ele>333.229774</ele>
        <time>2019-03-23T10:59:28Z</time>
      </trkpt>
      <trkpt lat="43.19282" lon="1.97886">
        <ele>323.393267</ele>
        <time>2019-03-23T10:59:38Z</time>
      </trkpt>
      <trkpt lat="43.19329" lon="1.97759">
        <ele>322.81784</ele>
        <time>2019-03-23T10:59:51Z</time>
      </trkpt>
      <trkpt lat="43.1926" lon="1.97765">
        <ele>323.227615</ele>
        <time>2019-03-23T11:00:01Z</time>
      </trkpt>
      <trkpt lat="43.19173" lon="1.97863">
        <ele>319.003732</ele>
        <time>2019-03-23T11:00:12Z</time>
      </trkpt>
      <trkpt lat="43.19207" lon="1.97968">
        <ele>309.581435</ele>
        <time>2019-03-23T11:00:22Z</time>
      </trkpt>
      <trkpt lat="43.19271" lon="1.97882">
        <ele>304.662187</ele>
        <time>2019-03-23T11:00:33Z</time>
      </trkpt>
      <trkpt lat="43.19324" lon="1.9778">
        <ele>318.308949</ele>
        <time>2019-03-23T11:00:44Z</time>
      </trkpt>
      <trkpt lat="43.19242" lon="1.97762">
        <ele>327.505599</ele>
        <time>2019-03-23T11:00:55Z</time>
      </trkpt>
      <trkpt lat="43.19162" lon="1.97875">
        <ele>333.695624</ele>
        <time>2019-03-23T11:01:06Z</time>
      </trkpt>
      <trkpt lat="43.19228" lon="1.97951">
        <ele>307.350576</ele>
        <time>2019-03-23T11:01:17Z</time>
      </trkpt>
      <trkpt lat="43.19266" lon="1.9789">
        <ele>298.370063</ele>
        <time>2019-03-23T11:01:26Z</time>
      </trkpt>
      <trkpt lat="43.19272" lon="1.97883">
        <ele>302.837756</ele>
        <time>2019-03-23T11:01:38Z</time>
      </trkpt>
    </trkseg>
  </trk>
</gpx>